<?xml version="1.0" encoding="UTF-8" standalone="no" ?>
<gpx xmlns="http://www.topografix.com/GPX/1/1" xmlns:xsi="http://www.w3.org/2001/XMLSchema-instance" xsi:schemaLocation="http://www.topografix.com/GPX/1/1 http://www.topografix.com/GPX/1/1/gpx.xsd" version="1.1" creator="VisuGPX - https://www.visugpx.com">
  <metadata>
    <name>Skating au signaraux</name>
    <desc><![CDATA[notre ballade d\'hier]]></desc>
  </metadata>
  <trk>
    <name><![CDATA[Signaraux]]></name>
    <cmt><![CDATA[Sous de fortes tombées de neige et après le kite, JM Kéké, Manu et moi avons attaqué la montée avec 10 cm de neige fraiche. Très difficile a skier, la neige se collant sous les chaussures et les spatules s'enterrant sous la neige. Arrivés sur le plateau la visibilité n'était pas bonne voir nulle on a vraiment eu du mal a resté sur la piste qui n'était plus visible du tout. Mais c'était très sympa, la visibilité c'est améliorée en descendant, les paysages magnifiques et le ski sur du coton ...  Fini au refuge ou on a bu un vin chaud. Génial]]></cmt>
    <trkseg>
      <trkpt lat="44.93466" lon="5.73836">
        <ele>1298</ele>
        <time>2015-02-15T14:12:50Z</time>
      </trkpt>
      <trkpt lat="44.93466" lon="5.73836">
        <ele>1355.4</ele>
        <time>2015-02-15T14:13:09Z</time>
      </trkpt>
      <trkpt lat="44.93473" lon="5.73823">
        <ele>1353</ele>
        <time>2015-02-15T14:13:19Z</time>
      </trkpt>
      <trkpt lat="44.93504" lon="5.73801">
        <ele>1349.1</ele>
        <time>2015-02-15T14:13:31Z</time>
      </trkpt>
      <trkpt lat="44.93521" lon="5.73796">
        <ele>1348.6</ele>
        <time>2015-02-15T14:13:37Z</time>
      </trkpt>
      <trkpt lat="44.93539" lon="5.73784">
        <ele>1348.4</ele>
        <time>2015-02-15T14:13:46Z</time>
      </trkpt>
      <trkpt lat="44.93558" lon="5.73777">
        <ele>1349.2</ele>
        <time>2015-02-15T14:13:57Z</time>
      </trkpt>
      <trkpt lat="44.93575" lon="5.73768">
        <ele>1350.1</ele>
        <time>2015-02-15T14:14:08Z</time>
      </trkpt>
      <trkpt lat="44.93589" lon="5.73756">
        <ele>1350.2</ele>
        <time>2015-02-15T14:14:21Z</time>
      </trkpt>
      <trkpt lat="44.93589" lon="5.73756">
        <ele>1350.2</ele>
        <time>2015-02-15T14:14:29Z</time>
      </trkpt>
      <trkpt lat="44.93589" lon="5.73756">
        <ele>1350.2</ele>
        <time>2015-02-15T14:14:30Z</time>
      </trkpt>
      <trkpt lat="44.93607" lon="5.73759">
        <ele>1350</ele>
        <time>2015-02-15T14:15:09Z</time>
      </trkpt>
      <trkpt lat="44.93614" lon="5.73767">
        <ele>1349.9</ele>
        <time>2015-02-15T14:15:15Z</time>
      </trkpt>
      <trkpt lat="44.93624" lon="5.73785">
        <ele>1350.7</ele>
        <time>2015-02-15T14:15:27Z</time>
      </trkpt>
      <trkpt lat="44.93638" lon="5.73812">
        <ele>1352.3</ele>
        <time>2015-02-15T14:15:45Z</time>
      </trkpt>
      <trkpt lat="44.93651" lon="5.73834">
        <ele>1353.5</ele>
        <time>2015-02-15T14:16:00Z</time>
      </trkpt>
      <trkpt lat="44.93658" lon="5.73851">
        <ele>1354.4</ele>
        <time>2015-02-15T14:16:12Z</time>
      </trkpt>
      <trkpt lat="44.93662" lon="5.73866">
        <ele>1355.6</ele>
        <time>2015-02-15T14:16:21Z</time>
      </trkpt>
      <trkpt lat="44.93665" lon="5.73887">
        <ele>1357</ele>
        <time>2015-02-15T14:16:34Z</time>
      </trkpt>
      <trkpt lat="44.93668" lon="5.73911">
        <ele>1358.6</ele>
        <time>2015-02-15T14:16:48Z</time>
      </trkpt>
      <trkpt lat="44.93671" lon="5.7394">
        <ele>1361.1</ele>
        <time>2015-02-15T14:17:04Z</time>
      </trkpt>
      <trkpt lat="44.93671" lon="5.73968">
        <ele>1364.1</ele>
        <time>2015-02-15T14:17:19Z</time>
      </trkpt>
      <trkpt lat="44.93666" lon="5.73995">
        <ele>1366.6</ele>
        <time>2015-02-15T14:17:33Z</time>
      </trkpt>
      <trkpt lat="44.93661" lon="5.74015">
        <ele>1368.2</ele>
        <time>2015-02-15T14:17:45Z</time>
      </trkpt>
      <trkpt lat="44.93651" lon="5.7404">
        <ele>1367.6</ele>
        <time>2015-02-15T14:18:02Z</time>
      </trkpt>
      <trkpt lat="44.93638" lon="5.74065">
        <ele>1365.1</ele>
        <time>2015-02-15T14:18:20Z</time>
      </trkpt>
      <trkpt lat="44.93629" lon="5.74082">
        <ele>1362.8</ele>
        <time>2015-02-15T14:18:32Z</time>
      </trkpt>
      <trkpt lat="44.93629" lon="5.74085">
        <ele>1362.4</ele>
        <time>2015-02-15T14:18:40Z</time>
      </trkpt>
      <trkpt lat="44.93622" lon="5.74113">
        <ele>1358.2</ele>
        <time>2015-02-15T14:20:52Z</time>
      </trkpt>
      <trkpt lat="44.93613" lon="5.74099">
        <ele>1371.2</ele>
        <time>2015-02-15T14:21:06Z</time>
      </trkpt>
      <trkpt lat="44.93617" lon="5.74071">
        <ele>1374.6</ele>
        <time>2015-02-15T14:21:19Z</time>
      </trkpt>
      <trkpt lat="44.93616" lon="5.74042">
        <ele>1378.2</ele>
        <time>2015-02-15T14:21:31Z</time>
      </trkpt>
      <trkpt lat="44.93607" lon="5.74017">
        <ele>1381.9</ele>
        <time>2015-02-15T14:21:45Z</time>
      </trkpt>
      <trkpt lat="44.93595" lon="5.73997">
        <ele>1384.6</ele>
        <time>2015-02-15T14:21:59Z</time>
      </trkpt>
      <trkpt lat="44.93577" lon="5.73978">
        <ele>1385.2</ele>
        <time>2015-02-15T14:22:13Z</time>
      </trkpt>
      <trkpt lat="44.93574" lon="5.7399">
        <ele>1385.4</ele>
        <time>2015-02-15T14:22:24Z</time>
      </trkpt>
      <trkpt lat="44.93583" lon="5.74023">
        <ele>1389.9</ele>
        <time>2015-02-15T14:22:39Z</time>
      </trkpt>
      <trkpt lat="44.93577" lon="5.74054">
        <ele>1393.7</ele>
        <time>2015-02-15T14:22:54Z</time>
      </trkpt>
      <trkpt lat="44.93567" lon="5.74082">
        <ele>1396.4</ele>
        <time>2015-02-15T14:23:10Z</time>
      </trkpt>
      <trkpt lat="44.9356" lon="5.74107">
        <ele>1397.1</ele>
        <time>2015-02-15T14:23:23Z</time>
      </trkpt>
      <trkpt lat="44.93555" lon="5.74122">
        <ele>1397.8</ele>
        <time>2015-02-15T14:23:32Z</time>
      </trkpt>
      <trkpt lat="44.93547" lon="5.74147">
        <ele>1400.1</ele>
        <time>2015-02-15T14:23:46Z</time>
      </trkpt>
      <trkpt lat="44.9354" lon="5.74169">
        <ele>1402.1</ele>
        <time>2015-02-15T14:23:58Z</time>
      </trkpt>
      <trkpt lat="44.93532" lon="5.74196">
        <ele>1404.9</ele>
        <time>2015-02-15T14:24:15Z</time>
      </trkpt>
      <trkpt lat="44.93527" lon="5.74214">
        <ele>1406</ele>
        <time>2015-02-15T14:24:25Z</time>
      </trkpt>
      <trkpt lat="44.93519" lon="5.74238">
        <ele>1407.8</ele>
        <time>2015-02-15T14:24:39Z</time>
      </trkpt>
      <trkpt lat="44.93514" lon="5.74258">
        <ele>1410.2</ele>
        <time>2015-02-15T14:24:51Z</time>
      </trkpt>
      <trkpt lat="44.93511" lon="5.74275">
        <ele>1412.3</ele>
        <time>2015-02-15T14:25:02Z</time>
      </trkpt>
      <trkpt lat="44.93518" lon="5.743">
        <ele>1413.7</ele>
        <time>2015-02-15T14:25:18Z</time>
      </trkpt>
      <trkpt lat="44.93536" lon="5.74313">
        <ele>1414.3</ele>
        <time>2015-02-15T14:25:32Z</time>
      </trkpt>
      <trkpt lat="44.93554" lon="5.74317">
        <ele>1415.9</ele>
        <time>2015-02-15T14:25:44Z</time>
      </trkpt>
      <trkpt lat="44.93577" lon="5.74319">
        <ele>1417.8</ele>
        <time>2015-02-15T14:25:57Z</time>
      </trkpt>
      <trkpt lat="44.93579" lon="5.7432">
        <ele>1418</ele>
        <time>2015-02-15T14:25:58Z</time>
      </trkpt>
      <trkpt lat="44.93589" lon="5.74323">
        <ele>1419</ele>
        <time>2015-02-15T14:26:07Z</time>
      </trkpt>
      <trkpt lat="44.93609" lon="5.74328">
        <ele>1419.8</ele>
        <time>2015-02-15T14:26:16Z</time>
      </trkpt>
      <trkpt lat="44.93632" lon="5.74334">
        <ele>1422.7</ele>
        <time>2015-02-15T14:26:28Z</time>
      </trkpt>
      <trkpt lat="44.93648" lon="5.74342">
        <ele>1423.8</ele>
        <time>2015-02-15T14:26:38Z</time>
      </trkpt>
      <trkpt lat="44.93659" lon="5.74352">
        <ele>1425.3</ele>
        <time>2015-02-15T14:26:49Z</time>
      </trkpt>
      <trkpt lat="44.93683" lon="5.74377">
        <ele>1426.8</ele>
        <time>2015-02-15T14:27:04Z</time>
      </trkpt>
      <trkpt lat="44.93692" lon="5.74403">
        <ele>1430.6</ele>
        <time>2015-02-15T14:27:16Z</time>
      </trkpt>
      <trkpt lat="44.93697" lon="5.74422">
        <ele>1431.8</ele>
        <time>2015-02-15T14:27:27Z</time>
      </trkpt>
      <trkpt lat="44.93708" lon="5.74449">
        <ele>1434.1</ele>
        <time>2015-02-15T14:27:42Z</time>
      </trkpt>
      <trkpt lat="44.93727" lon="5.74472">
        <ele>1437.7</ele>
        <time>2015-02-15T14:27:57Z</time>
      </trkpt>
      <trkpt lat="44.93741" lon="5.74489">
        <ele>1438.5</ele>
        <time>2015-02-15T14:28:07Z</time>
      </trkpt>
      <trkpt lat="44.93754" lon="5.74503">
        <ele>1438.2</ele>
        <time>2015-02-15T14:28:15Z</time>
      </trkpt>
      <trkpt lat="44.93766" lon="5.74523">
        <ele>1439</ele>
        <time>2015-02-15T14:28:26Z</time>
      </trkpt>
      <trkpt lat="44.93781" lon="5.74553">
        <ele>1439.7</ele>
        <time>2015-02-15T14:28:41Z</time>
      </trkpt>
      <trkpt lat="44.93791" lon="5.7457">
        <ele>1440.4</ele>
        <time>2015-02-15T14:28:50Z</time>
      </trkpt>
      <trkpt lat="44.93801" lon="5.74593">
        <ele>1442</ele>
        <time>2015-02-15T14:29:01Z</time>
      </trkpt>
      <trkpt lat="44.93801" lon="5.74621">
        <ele>1445.8</ele>
        <time>2015-02-15T14:29:15Z</time>
      </trkpt>
      <trkpt lat="44.93786" lon="5.7464">
        <ele>1445.6</ele>
        <time>2015-02-15T14:29:29Z</time>
      </trkpt>
      <trkpt lat="44.9377" lon="5.74647">
        <ele>1447</ele>
        <time>2015-02-15T14:29:39Z</time>
      </trkpt>
      <trkpt lat="44.93752" lon="5.7464">
        <ele>1450.4</ele>
        <time>2015-02-15T14:29:52Z</time>
      </trkpt>
      <trkpt lat="44.93736" lon="5.74622">
        <ele>1453.5</ele>
        <time>2015-02-15T14:30:05Z</time>
      </trkpt>
      <trkpt lat="44.93721" lon="5.74606">
        <ele>1453.6</ele>
        <time>2015-02-15T14:30:17Z</time>
      </trkpt>
      <trkpt lat="44.93708" lon="5.74593">
        <ele>1452.5</ele>
        <time>2015-02-15T14:30:28Z</time>
      </trkpt>
      <trkpt lat="44.93689" lon="5.74585">
        <ele>1451.7</ele>
        <time>2015-02-15T14:30:42Z</time>
      </trkpt>
      <trkpt lat="44.93675" lon="5.74588">
        <ele>1451.8</ele>
        <time>2015-02-15T14:30:54Z</time>
      </trkpt>
      <trkpt lat="44.9366" lon="5.74579">
        <ele>1452.9</ele>
        <time>2015-02-15T14:31:08Z</time>
      </trkpt>
      <trkpt lat="44.93647" lon="5.74562">
        <ele>1455.8</ele>
        <time>2015-02-15T14:31:23Z</time>
      </trkpt>
      <trkpt lat="44.93638" lon="5.74543">
        <ele>1456.5</ele>
        <time>2015-02-15T14:31:35Z</time>
      </trkpt>
      <trkpt lat="44.93629" lon="5.74535">
        <ele>1457.6</ele>
        <time>2015-02-15T14:31:43Z</time>
      </trkpt>
      <trkpt lat="44.93615" lon="5.74536">
        <ele>1457.5</ele>
        <time>2015-02-15T14:31:56Z</time>
      </trkpt>
      <trkpt lat="44.93615" lon="5.74536">
        <ele>1457.5</ele>
        <time>2015-02-15T14:32:03Z</time>
      </trkpt>
      <trkpt lat="44.93615" lon="5.74536">
        <ele>1457.5</ele>
        <time>2015-02-15T14:32:04Z</time>
      </trkpt>
      <trkpt lat="44.93601" lon="5.7455">
        <ele>1464.6</ele>
        <time>2015-02-15T14:33:18Z</time>
      </trkpt>
      <trkpt lat="44.93589" lon="5.74555">
        <ele>1465.2</ele>
        <time>2015-02-15T14:33:27Z</time>
      </trkpt>
      <trkpt lat="44.93569" lon="5.74551">
        <ele>1466.9</ele>
        <time>2015-02-15T14:33:40Z</time>
      </trkpt>
      <trkpt lat="44.93553" lon="5.74531">
        <ele>1467.2</ele>
        <time>2015-02-15T14:33:52Z</time>
      </trkpt>
      <trkpt lat="44.93543" lon="5.74513">
        <ele>1466.8</ele>
        <time>2015-02-15T14:33:57Z</time>
      </trkpt>
      <trkpt lat="44.93541" lon="5.7451">
        <ele>1467.2</ele>
        <time>2015-02-15T14:34:04Z</time>
      </trkpt>
      <trkpt lat="44.9356" lon="5.7455">
        <ele>1470.5</ele>
        <time>2015-02-15T14:35:11Z</time>
      </trkpt>
      <trkpt lat="44.93567" lon="5.74557">
        <ele>1471.5</ele>
        <time>2015-02-15T14:35:21Z</time>
      </trkpt>
      <trkpt lat="44.93597" lon="5.74557">
        <ele>1468.6</ele>
        <time>2015-02-15T14:37:07Z</time>
      </trkpt>
      <trkpt lat="44.93614" lon="5.74541">
        <ele>1466.9</ele>
        <time>2015-02-15T14:37:23Z</time>
      </trkpt>
      <trkpt lat="44.93632" lon="5.74533">
        <ele>1466.8</ele>
        <time>2015-02-15T14:37:36Z</time>
      </trkpt>
      <trkpt lat="44.93632" lon="5.74533">
        <ele>1466.8</ele>
        <time>2015-02-15T14:37:43Z</time>
      </trkpt>
      <trkpt lat="44.93632" lon="5.74533">
        <ele>1466.8</ele>
        <time>2015-02-15T14:37:44Z</time>
      </trkpt>
      <trkpt lat="44.93642" lon="5.74545">
        <ele>1466.2</ele>
        <time>2015-02-15T14:38:26Z</time>
      </trkpt>
      <trkpt lat="44.93652" lon="5.7457">
        <ele>1464.5</ele>
        <time>2015-02-15T14:38:36Z</time>
      </trkpt>
      <trkpt lat="44.9366" lon="5.74586">
        <ele>1463.8</ele>
        <time>2015-02-15T14:38:43Z</time>
      </trkpt>
      <trkpt lat="44.93664" lon="5.74593">
        <ele>1463.5</ele>
        <time>2015-02-15T14:38:47Z</time>
      </trkpt>
      <trkpt lat="44.93667" lon="5.74596">
        <ele>1463.4</ele>
        <time>2015-02-15T14:38:55Z</time>
      </trkpt>
      <trkpt lat="44.93653" lon="5.74579">
        <ele>1460.3</ele>
        <time>2015-02-15T14:39:15Z</time>
      </trkpt>
      <trkpt lat="44.93648" lon="5.74565">
        <ele>1459.2</ele>
        <time>2015-02-15T14:39:23Z</time>
      </trkpt>
      <trkpt lat="44.93638" lon="5.74543">
        <ele>1457.8</ele>
        <time>2015-02-15T14:39:38Z</time>
      </trkpt>
      <trkpt lat="44.93622" lon="5.74536">
        <ele>1458.6</ele>
        <time>2015-02-15T14:39:53Z</time>
      </trkpt>
      <trkpt lat="44.93603" lon="5.7455">
        <ele>1459.7</ele>
        <time>2015-02-15T14:40:08Z</time>
      </trkpt>
      <trkpt lat="44.93589" lon="5.74555">
        <ele>1461</ele>
        <time>2015-02-15T14:40:20Z</time>
      </trkpt>
      <trkpt lat="44.93561" lon="5.74543">
        <ele>1462.5</ele>
        <time>2015-02-15T14:40:38Z</time>
      </trkpt>
      <trkpt lat="44.93539" lon="5.74514">
        <ele>1464.2</ele>
        <time>2015-02-15T14:40:49Z</time>
      </trkpt>
      <trkpt lat="44.93518" lon="5.74512">
        <ele>1464</ele>
        <time>2015-02-15T14:40:56Z</time>
      </trkpt>
      <trkpt lat="44.93502" lon="5.7452">
        <ele>1463.4</ele>
        <time>2015-02-15T14:41:05Z</time>
      </trkpt>
      <trkpt lat="44.93486" lon="5.74529">
        <ele>1463</ele>
        <time>2015-02-15T14:41:13Z</time>
      </trkpt>
      <trkpt lat="44.93474" lon="5.74536">
        <ele>1465.4</ele>
        <time>2015-02-15T14:41:20Z</time>
      </trkpt>
      <trkpt lat="44.93442" lon="5.74554">
        <ele>1471.4</ele>
        <time>2015-02-15T14:41:34Z</time>
      </trkpt>
      <trkpt lat="44.93427" lon="5.74564">
        <ele>1473</ele>
        <time>2015-02-15T14:41:43Z</time>
      </trkpt>
      <trkpt lat="44.93403" lon="5.74579">
        <ele>1473</ele>
        <time>2015-02-15T14:41:56Z</time>
      </trkpt>
      <trkpt lat="44.93386" lon="5.74582">
        <ele>1474.1</ele>
        <time>2015-02-15T14:42:03Z</time>
      </trkpt>
      <trkpt lat="44.93364" lon="5.74572">
        <ele>1474.9</ele>
        <time>2015-02-15T14:42:14Z</time>
      </trkpt>
      <trkpt lat="44.93356" lon="5.74551">
        <ele>1472.4</ele>
        <time>2015-02-15T14:42:25Z</time>
      </trkpt>
      <trkpt lat="44.93354" lon="5.74513">
        <ele>1469.9</ele>
        <time>2015-02-15T14:42:35Z</time>
      </trkpt>
      <trkpt lat="44.93347" lon="5.74498">
        <ele>1469.5</ele>
        <time>2015-02-15T14:42:41Z</time>
      </trkpt>
      <trkpt lat="44.9334" lon="5.74488">
        <ele>1469.3</ele>
        <time>2015-02-15T14:42:47Z</time>
      </trkpt>
      <trkpt lat="44.93328" lon="5.74477">
        <ele>1469</ele>
        <time>2015-02-15T14:42:58Z</time>
      </trkpt>
      <trkpt lat="44.9331" lon="5.7446">
        <ele>1469.6</ele>
        <time>2015-02-15T14:43:15Z</time>
      </trkpt>
      <trkpt lat="44.93297" lon="5.74446">
        <ele>1469.4</ele>
        <time>2015-02-15T14:43:27Z</time>
      </trkpt>
      <trkpt lat="44.9328" lon="5.74427">
        <ele>1469.9</ele>
        <time>2015-02-15T14:43:41Z</time>
      </trkpt>
      <trkpt lat="44.9328" lon="5.74427">
        <ele>1469.9</ele>
        <time>2015-02-15T14:43:49Z</time>
      </trkpt>
      <trkpt lat="44.9328" lon="5.74427">
        <ele>1469.9</ele>
        <time>2015-02-15T14:43:50Z</time>
      </trkpt>
      <trkpt lat="44.93271" lon="5.74409">
        <ele>1469.9</ele>
        <time>2015-02-15T14:44:01Z</time>
      </trkpt>
      <trkpt lat="44.9326" lon="5.74391">
        <ele>1470.7</ele>
        <time>2015-02-15T14:44:09Z</time>
      </trkpt>
      <trkpt lat="44.93244" lon="5.7437">
        <ele>1470.8</ele>
        <time>2015-02-15T14:44:17Z</time>
      </trkpt>
      <trkpt lat="44.93227" lon="5.74349">
        <ele>1471.9</ele>
        <time>2015-02-15T14:44:25Z</time>
      </trkpt>
      <trkpt lat="44.93217" lon="5.74336">
        <ele>1471.5</ele>
        <time>2015-02-15T14:44:32Z</time>
      </trkpt>
      <trkpt lat="44.93203" lon="5.74317">
        <ele>1471.7</ele>
        <time>2015-02-15T14:44:44Z</time>
      </trkpt>
      <trkpt lat="44.93188" lon="5.74298">
        <ele>1472.6</ele>
        <time>2015-02-15T14:44:59Z</time>
      </trkpt>
      <trkpt lat="44.93188" lon="5.74298">
        <ele>1472.6</ele>
        <time>2015-02-15T14:45:06Z</time>
      </trkpt>
      <trkpt lat="44.93188" lon="5.74298">
        <ele>1472.6</ele>
        <time>2015-02-15T14:45:07Z</time>
      </trkpt>
      <trkpt lat="44.9318" lon="5.74281">
        <ele>1474.2</ele>
        <time>2015-02-15T14:51:16Z</time>
      </trkpt>
      <trkpt lat="44.93177" lon="5.74262">
        <ele>1474.6</ele>
        <time>2015-02-15T14:51:23Z</time>
      </trkpt>
      <trkpt lat="44.93172" lon="5.74238">
        <ele>1474.7</ele>
        <time>2015-02-15T14:51:30Z</time>
      </trkpt>
      <trkpt lat="44.93165" lon="5.74214">
        <ele>1475.4</ele>
        <time>2015-02-15T14:51:37Z</time>
      </trkpt>
      <trkpt lat="44.93159" lon="5.74192">
        <ele>1476.6</ele>
        <time>2015-02-15T14:51:45Z</time>
      </trkpt>
      <trkpt lat="44.93151" lon="5.74163">
        <ele>1477.9</ele>
        <time>2015-02-15T14:51:55Z</time>
      </trkpt>
      <trkpt lat="44.93143" lon="5.74139">
        <ele>1479.6</ele>
        <time>2015-02-15T14:52:04Z</time>
      </trkpt>
      <trkpt lat="44.93132" lon="5.74115">
        <ele>1480.6</ele>
        <time>2015-02-15T14:52:16Z</time>
      </trkpt>
      <trkpt lat="44.93122" lon="5.74096">
        <ele>1481.3</ele>
        <time>2015-02-15T14:52:26Z</time>
      </trkpt>
      <trkpt lat="44.93113" lon="5.74083">
        <ele>1481.3</ele>
        <time>2015-02-15T14:52:33Z</time>
      </trkpt>
      <trkpt lat="44.93098" lon="5.74066">
        <ele>1481</ele>
        <time>2015-02-15T14:52:45Z</time>
      </trkpt>
      <trkpt lat="44.93081" lon="5.74053">
        <ele>1481</ele>
        <time>2015-02-15T14:52:57Z</time>
      </trkpt>
      <trkpt lat="44.9307" lon="5.74048">
        <ele>1481.2</ele>
        <time>2015-02-15T14:53:05Z</time>
      </trkpt>
      <trkpt lat="44.93062" lon="5.74044">
        <ele>1481</ele>
        <time>2015-02-15T14:53:13Z</time>
      </trkpt>
      <trkpt lat="44.93042" lon="5.74039">
        <ele>1480.7</ele>
        <time>2015-02-15T14:53:29Z</time>
      </trkpt>
      <trkpt lat="44.93032" lon="5.74038">
        <ele>1481.3</ele>
        <time>2015-02-15T14:53:37Z</time>
      </trkpt>
      <trkpt lat="44.93023" lon="5.74036">
        <ele>1481.6</ele>
        <time>2015-02-15T14:53:44Z</time>
      </trkpt>
      <trkpt lat="44.93013" lon="5.74036">
        <ele>1482.3</ele>
        <time>2015-02-15T14:53:52Z</time>
      </trkpt>
      <trkpt lat="44.92989" lon="5.74033">
        <ele>1483.9</ele>
        <time>2015-02-15T14:54:11Z</time>
      </trkpt>
      <trkpt lat="44.92973" lon="5.74023">
        <ele>1488.9</ele>
        <time>2015-02-15T14:54:25Z</time>
      </trkpt>
      <trkpt lat="44.92961" lon="5.74007">
        <ele>1494.4</ele>
        <time>2015-02-15T14:54:37Z</time>
      </trkpt>
      <trkpt lat="44.92951" lon="5.73989">
        <ele>1495.9</ele>
        <time>2015-02-15T14:54:49Z</time>
      </trkpt>
      <trkpt lat="44.92943" lon="5.73975">
        <ele>1497</ele>
        <time>2015-02-15T14:54:58Z</time>
      </trkpt>
      <trkpt lat="44.92933" lon="5.73958">
        <ele>1499.5</ele>
        <time>2015-02-15T14:55:11Z</time>
      </trkpt>
      <trkpt lat="44.92921" lon="5.73942">
        <ele>1500.5</ele>
        <time>2015-02-15T14:55:23Z</time>
      </trkpt>
      <trkpt lat="44.92912" lon="5.73932">
        <ele>1501.9</ele>
        <time>2015-02-15T14:55:31Z</time>
      </trkpt>
      <trkpt lat="44.92898" lon="5.73921">
        <ele>1503.1</ele>
        <time>2015-02-15T14:55:46Z</time>
      </trkpt>
      <trkpt lat="44.92883" lon="5.73908">
        <ele>1504.2</ele>
        <time>2015-02-15T14:56:02Z</time>
      </trkpt>
      <trkpt lat="44.92881" lon="5.73907">
        <ele>1504.4</ele>
        <time>2015-02-15T14:56:04Z</time>
      </trkpt>
      <trkpt lat="44.9288" lon="5.73905">
        <ele>1510.3</ele>
        <time>2015-02-15T14:56:13Z</time>
      </trkpt>
      <trkpt lat="44.92868" lon="5.73897">
        <ele>1521.3</ele>
        <time>2015-02-15T15:00:47Z</time>
      </trkpt>
      <trkpt lat="44.92847" lon="5.73893">
        <ele>1522.2</ele>
        <time>2015-02-15T15:01:02Z</time>
      </trkpt>
      <trkpt lat="44.92835" lon="5.73891">
        <ele>1522.8</ele>
        <time>2015-02-15T15:01:11Z</time>
      </trkpt>
      <trkpt lat="44.92812" lon="5.73893">
        <ele>1524.8</ele>
        <time>2015-02-15T15:01:27Z</time>
      </trkpt>
      <trkpt lat="44.92791" lon="5.73902">
        <ele>1525.8</ele>
        <time>2015-02-15T15:01:42Z</time>
      </trkpt>
      <trkpt lat="44.9279" lon="5.73909">
        <ele>1525.4</ele>
        <time>2015-02-15T15:01:49Z</time>
      </trkpt>
      <trkpt lat="44.92793" lon="5.7392">
        <ele>1526.4</ele>
        <time>2015-02-15T15:02:02Z</time>
      </trkpt>
      <trkpt lat="44.92806" lon="5.73943">
        <ele>1530</ele>
        <time>2015-02-15T15:02:18Z</time>
      </trkpt>
      <trkpt lat="44.92814" lon="5.73958">
        <ele>1532.6</ele>
        <time>2015-02-15T15:02:28Z</time>
      </trkpt>
      <trkpt lat="44.92825" lon="5.73978">
        <ele>1534.9</ele>
        <time>2015-02-15T15:02:42Z</time>
      </trkpt>
      <trkpt lat="44.92835" lon="5.73996">
        <ele>1536.4</ele>
        <time>2015-02-15T15:02:54Z</time>
      </trkpt>
      <trkpt lat="44.92845" lon="5.74021">
        <ele>1538.2</ele>
        <time>2015-02-15T15:03:07Z</time>
      </trkpt>
      <trkpt lat="44.92851" lon="5.74034">
        <ele>1538.7</ele>
        <time>2015-02-15T15:03:14Z</time>
      </trkpt>
      <trkpt lat="44.92861" lon="5.74057">
        <ele>1538.7</ele>
        <time>2015-02-15T15:03:26Z</time>
      </trkpt>
      <trkpt lat="44.92871" lon="5.74079">
        <ele>1539.5</ele>
        <time>2015-02-15T15:03:39Z</time>
      </trkpt>
      <trkpt lat="44.92879" lon="5.74096">
        <ele>1539.6</ele>
        <time>2015-02-15T15:03:47Z</time>
      </trkpt>
      <trkpt lat="44.9289" lon="5.7412">
        <ele>1540.8</ele>
        <time>2015-02-15T15:04:00Z</time>
      </trkpt>
      <trkpt lat="44.92903" lon="5.7415">
        <ele>1542.4</ele>
        <time>2015-02-15T15:04:12Z</time>
      </trkpt>
      <trkpt lat="44.92909" lon="5.74163">
        <ele>1543.6</ele>
        <time>2015-02-15T15:04:19Z</time>
      </trkpt>
      <trkpt lat="44.92909" lon="5.74165">
        <ele>1543.6</ele>
        <time>2015-02-15T15:04:27Z</time>
      </trkpt>
      <trkpt lat="44.92882" lon="5.74154">
        <ele>1552</ele>
        <time>2015-02-15T15:05:00Z</time>
      </trkpt>
      <trkpt lat="44.92869" lon="5.74152">
        <ele>1553.6</ele>
        <time>2015-02-15T15:05:10Z</time>
      </trkpt>
      <trkpt lat="44.92848" lon="5.74151">
        <ele>1555.7</ele>
        <time>2015-02-15T15:05:23Z</time>
      </trkpt>
      <trkpt lat="44.92829" lon="5.7415">
        <ele>1557</ele>
        <time>2015-02-15T15:05:33Z</time>
      </trkpt>
      <trkpt lat="44.92808" lon="5.74142">
        <ele>1558.9</ele>
        <time>2015-02-15T15:05:43Z</time>
      </trkpt>
      <trkpt lat="44.92787" lon="5.74131">
        <ele>1561.3</ele>
        <time>2015-02-15T15:05:54Z</time>
      </trkpt>
      <trkpt lat="44.92768" lon="5.74124">
        <ele>1562.1</ele>
        <time>2015-02-15T15:06:04Z</time>
      </trkpt>
      <trkpt lat="44.92752" lon="5.74117">
        <ele>1563.7</ele>
        <time>2015-02-15T15:06:13Z</time>
      </trkpt>
      <trkpt lat="44.92752" lon="5.74117">
        <ele>1563.7</ele>
        <time>2015-02-15T15:06:20Z</time>
      </trkpt>
      <trkpt lat="44.92752" lon="5.74117">
        <ele>1563.7</ele>
        <time>2015-02-15T15:06:21Z</time>
      </trkpt>
      <trkpt lat="44.92734" lon="5.74115">
        <ele>1566.6</ele>
        <time>2015-02-15T15:08:29Z</time>
      </trkpt>
      <trkpt lat="44.92723" lon="5.74114">
        <ele>1567.1</ele>
        <time>2015-02-15T15:08:35Z</time>
      </trkpt>
      <trkpt lat="44.92714" lon="5.74113">
        <ele>1567.4</ele>
        <time>2015-02-15T15:08:40Z</time>
      </trkpt>
      <trkpt lat="44.92691" lon="5.74114">
        <ele>1568.5</ele>
        <time>2015-02-15T15:08:52Z</time>
      </trkpt>
      <trkpt lat="44.92683" lon="5.74114">
        <ele>1569.2</ele>
        <time>2015-02-15T15:08:56Z</time>
      </trkpt>
      <trkpt lat="44.92662" lon="5.74118">
        <ele>1570.3</ele>
        <time>2015-02-15T15:09:07Z</time>
      </trkpt>
      <trkpt lat="44.9264" lon="5.74127">
        <ele>1570.6</ele>
        <time>2015-02-15T15:09:18Z</time>
      </trkpt>
      <trkpt lat="44.9262" lon="5.74143">
        <ele>1570.7</ele>
        <time>2015-02-15T15:09:29Z</time>
      </trkpt>
      <trkpt lat="44.92615" lon="5.74146">
        <ele>1571</ele>
        <time>2015-02-15T15:09:32Z</time>
      </trkpt>
      <trkpt lat="44.92614" lon="5.74146">
        <ele>1571</ele>
        <time>2015-02-15T15:09:41Z</time>
      </trkpt>
      <trkpt lat="44.92605" lon="5.74163">
        <ele>1570.7</ele>
        <time>2015-02-15T15:10:09Z</time>
      </trkpt>
      <trkpt lat="44.92594" lon="5.74188">
        <ele>1569</ele>
        <time>2015-02-15T15:10:25Z</time>
      </trkpt>
      <trkpt lat="44.92585" lon="5.74212">
        <ele>1568.8</ele>
        <time>2015-02-15T15:10:41Z</time>
      </trkpt>
      <trkpt lat="44.92584" lon="5.74224">
        <ele>1569.2</ele>
        <time>2015-02-15T15:10:47Z</time>
      </trkpt>
      <trkpt lat="44.92583" lon="5.74226">
        <ele>1568.9</ele>
        <time>2015-02-15T15:10:55Z</time>
      </trkpt>
      <trkpt lat="44.92577" lon="5.74263">
        <ele>1571.8</ele>
        <time>2015-02-15T15:11:41Z</time>
      </trkpt>
      <trkpt lat="44.92576" lon="5.74277">
        <ele>1572.5</ele>
        <time>2015-02-15T15:11:51Z</time>
      </trkpt>
      <trkpt lat="44.92571" lon="5.74289">
        <ele>1572.5</ele>
        <time>2015-02-15T15:12:01Z</time>
      </trkpt>
      <trkpt lat="44.9257" lon="5.74293">
        <ele>1573</ele>
        <time>2015-02-15T15:12:09Z</time>
      </trkpt>
      <trkpt lat="44.92556" lon="5.74296">
        <ele>1577.1</ele>
        <time>2015-02-15T15:15:12Z</time>
      </trkpt>
      <trkpt lat="44.92534" lon="5.74298">
        <ele>1576.8</ele>
        <time>2015-02-15T15:15:20Z</time>
      </trkpt>
      <trkpt lat="44.92513" lon="5.74299">
        <ele>1577.1</ele>
        <time>2015-02-15T15:15:29Z</time>
      </trkpt>
      <trkpt lat="44.92494" lon="5.74302">
        <ele>1576.8</ele>
        <time>2015-02-15T15:15:37Z</time>
      </trkpt>
      <trkpt lat="44.92473" lon="5.74308">
        <ele>1576.1</ele>
        <time>2015-02-15T15:15:47Z</time>
      </trkpt>
      <trkpt lat="44.9246" lon="5.74312">
        <ele>1575.5</ele>
        <time>2015-02-15T15:15:53Z</time>
      </trkpt>
      <trkpt lat="44.92442" lon="5.74314">
        <ele>1575.4</ele>
        <time>2015-02-15T15:16:02Z</time>
      </trkpt>
      <trkpt lat="44.92423" lon="5.74305">
        <ele>1574.9</ele>
        <time>2015-02-15T15:16:12Z</time>
      </trkpt>
      <trkpt lat="44.92411" lon="5.74298">
        <ele>1575.2</ele>
        <time>2015-02-15T15:16:19Z</time>
      </trkpt>
      <trkpt lat="44.92409" lon="5.74298">
        <ele>1575.4</ele>
        <time>2015-02-15T15:16:21Z</time>
      </trkpt>
      <trkpt lat="44.92409" lon="5.74298">
        <ele>1575.2</ele>
        <time>2015-02-15T15:16:28Z</time>
      </trkpt>
      <trkpt lat="44.92392" lon="5.74284">
        <ele>1575.7</ele>
        <time>2015-02-15T15:16:50Z</time>
      </trkpt>
      <trkpt lat="44.92374" lon="5.74273">
        <ele>1575.6</ele>
        <time>2015-02-15T15:17:01Z</time>
      </trkpt>
      <trkpt lat="44.92356" lon="5.74261">
        <ele>1576</ele>
        <time>2015-02-15T15:17:12Z</time>
      </trkpt>
      <trkpt lat="44.92341" lon="5.74249">
        <ele>1575.8</ele>
        <time>2015-02-15T15:17:21Z</time>
      </trkpt>
      <trkpt lat="44.92331" lon="5.74225">
        <ele>1575.7</ele>
        <time>2015-02-15T15:17:32Z</time>
      </trkpt>
      <trkpt lat="44.92338" lon="5.74208">
        <ele>1575.6</ele>
        <time>2015-02-15T15:17:45Z</time>
      </trkpt>
      <trkpt lat="44.92373" lon="5.74211">
        <ele>1574</ele>
        <time>2015-02-15T15:18:01Z</time>
      </trkpt>
      <trkpt lat="44.92392" lon="5.74211">
        <ele>1573.4</ele>
        <time>2015-02-15T15:18:08Z</time>
      </trkpt>
      <trkpt lat="44.92417" lon="5.74211">
        <ele>1572.5</ele>
        <time>2015-02-15T15:18:16Z</time>
      </trkpt>
      <trkpt lat="44.92427" lon="5.74211">
        <ele>1572.3</ele>
        <time>2015-02-15T15:18:19Z</time>
      </trkpt>
      <trkpt lat="44.92445" lon="5.74213">
        <ele>1572.6</ele>
        <time>2015-02-15T15:18:27Z</time>
      </trkpt>
      <trkpt lat="44.92445" lon="5.74213">
        <ele>1572.6</ele>
        <time>2015-02-15T15:18:34Z</time>
      </trkpt>
      <trkpt lat="44.92445" lon="5.74213">
        <ele>1572.6</ele>
        <time>2015-02-15T15:18:35Z</time>
      </trkpt>
      <trkpt lat="44.92464" lon="5.74208">
        <ele>1573.5</ele>
        <time>2015-02-15T15:20:27Z</time>
      </trkpt>
      <trkpt lat="44.9247" lon="5.74206">
        <ele>1573.6</ele>
        <time>2015-02-15T15:20:30Z</time>
      </trkpt>
      <trkpt lat="44.92487" lon="5.74195">
        <ele>1573.3</ele>
        <time>2015-02-15T15:20:38Z</time>
      </trkpt>
      <trkpt lat="44.925" lon="5.74176">
        <ele>1572.8</ele>
        <time>2015-02-15T15:20:48Z</time>
      </trkpt>
      <trkpt lat="44.92502" lon="5.74162">
        <ele>1573</ele>
        <time>2015-02-15T15:20:59Z</time>
      </trkpt>
      <trkpt lat="44.92506" lon="5.74118">
        <ele>1572</ele>
        <time>2015-02-15T15:21:14Z</time>
      </trkpt>
      <trkpt lat="44.92507" lon="5.74105">
        <ele>1571.8</ele>
        <time>2015-02-15T15:21:18Z</time>
      </trkpt>
      <trkpt lat="44.92508" lon="5.74101">
        <ele>1571.6</ele>
        <time>2015-02-15T15:21:25Z</time>
      </trkpt>
      <trkpt lat="44.92508" lon="5.74073">
        <ele>1572.5</ele>
        <time>2015-02-15T15:22:03Z</time>
      </trkpt>
      <trkpt lat="44.9251" lon="5.74054">
        <ele>1574.7</ele>
        <time>2015-02-15T15:22:14Z</time>
      </trkpt>
      <trkpt lat="44.9251" lon="5.74038">
        <ele>1576.6</ele>
        <time>2015-02-15T15:22:27Z</time>
      </trkpt>
      <trkpt lat="44.92511" lon="5.74027">
        <ele>1577.5</ele>
        <time>2015-02-15T15:22:38Z</time>
      </trkpt>
      <trkpt lat="44.92505" lon="5.74">
        <ele>1579.4</ele>
        <time>2015-02-15T15:22:54Z</time>
      </trkpt>
      <trkpt lat="44.92497" lon="5.73989">
        <ele>1580.1</ele>
        <time>2015-02-15T15:23:01Z</time>
      </trkpt>
      <trkpt lat="44.92494" lon="5.73985">
        <ele>1580.5</ele>
        <time>2015-02-15T15:23:14Z</time>
      </trkpt>
      <trkpt lat="44.92482" lon="5.73974">
        <ele>1580.4</ele>
        <time>2015-02-15T15:23:26Z</time>
      </trkpt>
      <trkpt lat="44.92464" lon="5.73958">
        <ele>1580.4</ele>
        <time>2015-02-15T15:23:37Z</time>
      </trkpt>
      <trkpt lat="44.92446" lon="5.73949">
        <ele>1581.1</ele>
        <time>2015-02-15T15:23:52Z</time>
      </trkpt>
      <trkpt lat="44.92425" lon="5.73942">
        <ele>1582.4</ele>
        <time>2015-02-15T15:24:05Z</time>
      </trkpt>
      <trkpt lat="44.9241" lon="5.73937">
        <ele>1582.9</ele>
        <time>2015-02-15T15:24:16Z</time>
      </trkpt>
      <trkpt lat="44.92385" lon="5.73938">
        <ele>1583.4</ele>
        <time>2015-02-15T15:24:32Z</time>
      </trkpt>
      <trkpt lat="44.92362" lon="5.7394">
        <ele>1584.6</ele>
        <time>2015-02-15T15:24:47Z</time>
      </trkpt>
      <trkpt lat="44.92336" lon="5.73943">
        <ele>1585</ele>
        <time>2015-02-15T15:24:59Z</time>
      </trkpt>
      <trkpt lat="44.92336" lon="5.73943">
        <ele>1585</ele>
        <time>2015-02-15T15:25:07Z</time>
      </trkpt>
      <trkpt lat="44.92336" lon="5.73943">
        <ele>1585</ele>
        <time>2015-02-15T15:25:08Z</time>
      </trkpt>
      <trkpt lat="44.92322" lon="5.73945">
        <ele>1586.1</ele>
        <time>2015-02-15T15:27:53Z</time>
      </trkpt>
      <trkpt lat="44.92287" lon="5.7394">
        <ele>1585.4</ele>
        <time>2015-02-15T15:28:02Z</time>
      </trkpt>
      <trkpt lat="44.92271" lon="5.73927">
        <ele>1584.7</ele>
        <time>2015-02-15T15:28:08Z</time>
      </trkpt>
      <trkpt lat="44.92254" lon="5.73911">
        <ele>1584.3</ele>
        <time>2015-02-15T15:28:17Z</time>
      </trkpt>
      <trkpt lat="44.92247" lon="5.73905">
        <ele>1584.5</ele>
        <time>2015-02-15T15:28:20Z</time>
      </trkpt>
      <trkpt lat="44.92228" lon="5.73893">
        <ele>1583.6</ele>
        <time>2015-02-15T15:28:29Z</time>
      </trkpt>
      <trkpt lat="44.92213" lon="5.73894">
        <ele>1583.5</ele>
        <time>2015-02-15T15:28:40Z</time>
      </trkpt>
      <trkpt lat="44.92194" lon="5.73895">
        <ele>1583.8</ele>
        <time>2015-02-15T15:28:55Z</time>
      </trkpt>
      <trkpt lat="44.92178" lon="5.73895">
        <ele>1583.6</ele>
        <time>2015-02-15T15:29:07Z</time>
      </trkpt>
      <trkpt lat="44.92162" lon="5.739">
        <ele>1584.8</ele>
        <time>2015-02-15T15:29:25Z</time>
      </trkpt>
      <trkpt lat="44.92131" lon="5.73899">
        <ele>1588.1</ele>
        <time>2015-02-15T15:30:27Z</time>
      </trkpt>
      <trkpt lat="44.92118" lon="5.73899">
        <ele>1588.6</ele>
        <time>2015-02-15T15:30:38Z</time>
      </trkpt>
      <trkpt lat="44.92109" lon="5.73901">
        <ele>1588.6</ele>
        <time>2015-02-15T15:30:44Z</time>
      </trkpt>
      <trkpt lat="44.92104" lon="5.73901">
        <ele>1588.3</ele>
        <time>2015-02-15T15:30:49Z</time>
      </trkpt>
      <trkpt lat="44.92099" lon="5.739">
        <ele>1589.4</ele>
        <time>2015-02-15T15:31:04Z</time>
      </trkpt>
      <trkpt lat="44.92092" lon="5.739">
        <ele>1590</ele>
        <time>2015-02-15T15:31:10Z</time>
      </trkpt>
      <trkpt lat="44.92079" lon="5.73898">
        <ele>1590.9</ele>
        <time>2015-02-15T15:31:21Z</time>
      </trkpt>
      <trkpt lat="44.92079" lon="5.73898">
        <ele>1590.9</ele>
        <time>2015-02-15T15:31:29Z</time>
      </trkpt>
      <trkpt lat="44.92079" lon="5.73898">
        <ele>1590.9</ele>
        <time>2015-02-15T15:31:30Z</time>
      </trkpt>
      <trkpt lat="44.92063" lon="5.73897">
        <ele>1593.7</ele>
        <time>2015-02-15T15:31:41Z</time>
      </trkpt>
      <trkpt lat="44.92048" lon="5.73898">
        <ele>1594.6</ele>
        <time>2015-02-15T15:31:54Z</time>
      </trkpt>
      <trkpt lat="44.9204" lon="5.73902">
        <ele>1594.9</ele>
        <time>2015-02-15T15:32:07Z</time>
      </trkpt>
      <trkpt lat="44.9204" lon="5.73902">
        <ele>1594.9</ele>
        <time>2015-02-15T15:32:15Z</time>
      </trkpt>
      <trkpt lat="44.9204" lon="5.73902">
        <ele>1594.9</ele>
        <time>2015-02-15T15:32:16Z</time>
      </trkpt>
      <trkpt lat="44.92024" lon="5.73902">
        <ele>1597.6</ele>
        <time>2015-02-15T15:33:00Z</time>
      </trkpt>
      <trkpt lat="44.92013" lon="5.73901">
        <ele>1598.2</ele>
        <time>2015-02-15T15:33:12Z</time>
      </trkpt>
      <trkpt lat="44.91992" lon="5.73903">
        <ele>1599.1</ele>
        <time>2015-02-15T15:33:30Z</time>
      </trkpt>
      <trkpt lat="44.91977" lon="5.73904">
        <ele>1600.1</ele>
        <time>2015-02-15T15:33:42Z</time>
      </trkpt>
      <trkpt lat="44.91964" lon="5.73905">
        <ele>1602.6</ele>
        <time>2015-02-15T15:33:55Z</time>
      </trkpt>
      <trkpt lat="44.91947" lon="5.73911">
        <ele>1604.8</ele>
        <time>2015-02-15T15:34:16Z</time>
      </trkpt>
      <trkpt lat="44.91947" lon="5.73911">
        <ele>1604.8</ele>
        <time>2015-02-15T15:34:23Z</time>
      </trkpt>
      <trkpt lat="44.91947" lon="5.73911">
        <ele>1604.8</ele>
        <time>2015-02-15T15:34:24Z</time>
      </trkpt>
      <trkpt lat="44.91932" lon="5.73911">
        <ele>1607.1</ele>
        <time>2015-02-15T15:34:56Z</time>
      </trkpt>
      <trkpt lat="44.91916" lon="5.73912">
        <ele>1607.9</ele>
        <time>2015-02-15T15:35:12Z</time>
      </trkpt>
      <trkpt lat="44.91898" lon="5.73918">
        <ele>1610.5</ele>
        <time>2015-02-15T15:35:27Z</time>
      </trkpt>
      <trkpt lat="44.9188" lon="5.73923">
        <ele>1610.9</ele>
        <time>2015-02-15T15:35:41Z</time>
      </trkpt>
      <trkpt lat="44.91873" lon="5.73926">
        <ele>1611.4</ele>
        <time>2015-02-15T15:35:47Z</time>
      </trkpt>
      <trkpt lat="44.91869" lon="5.7393">
        <ele>1612.5</ele>
        <time>2015-02-15T15:35:57Z</time>
      </trkpt>
      <trkpt lat="44.9186" lon="5.73933">
        <ele>1613.7</ele>
        <time>2015-02-15T15:36:07Z</time>
      </trkpt>
      <trkpt lat="44.91857" lon="5.73937">
        <ele>1613.8</ele>
        <time>2015-02-15T15:36:18Z</time>
      </trkpt>
      <trkpt lat="44.9185" lon="5.73942">
        <ele>1613.9</ele>
        <time>2015-02-15T15:36:26Z</time>
      </trkpt>
      <trkpt lat="44.9185" lon="5.73942">
        <ele>1613.9</ele>
        <time>2015-02-15T15:36:33Z</time>
      </trkpt>
      <trkpt lat="44.9185" lon="5.73942">
        <ele>1613.9</ele>
        <time>2015-02-15T15:36:34Z</time>
      </trkpt>
      <trkpt lat="44.91824" lon="5.73939">
        <ele>1620.4</ele>
        <time>2015-02-15T15:37:16Z</time>
      </trkpt>
      <trkpt lat="44.91812" lon="5.73928">
        <ele>1621.1</ele>
        <time>2015-02-15T15:37:28Z</time>
      </trkpt>
      <trkpt lat="44.91803" lon="5.7392">
        <ele>1622.2</ele>
        <time>2015-02-15T15:37:36Z</time>
      </trkpt>
      <trkpt lat="44.91787" lon="5.73893">
        <ele>1622.4</ele>
        <time>2015-02-15T15:37:52Z</time>
      </trkpt>
      <trkpt lat="44.91789" lon="5.73879">
        <ele>1621.9</ele>
        <time>2015-02-15T15:38:01Z</time>
      </trkpt>
      <trkpt lat="44.91793" lon="5.73874">
        <ele>1621.7</ele>
        <time>2015-02-15T15:38:18Z</time>
      </trkpt>
      <trkpt lat="44.91818" lon="5.73869">
        <ele>1621.5</ele>
        <time>2015-02-15T15:39:27Z</time>
      </trkpt>
      <trkpt lat="44.91835" lon="5.73873">
        <ele>1620.4</ele>
        <time>2015-02-15T15:39:35Z</time>
      </trkpt>
      <trkpt lat="44.91843" lon="5.73876">
        <ele>1619.8</ele>
        <time>2015-02-15T15:39:38Z</time>
      </trkpt>
      <trkpt lat="44.91858" lon="5.73881">
        <ele>1619.2</ele>
        <time>2015-02-15T15:39:46Z</time>
      </trkpt>
      <trkpt lat="44.91871" lon="5.73886">
        <ele>1618.5</ele>
        <time>2015-02-15T15:39:54Z</time>
      </trkpt>
      <trkpt lat="44.91886" lon="5.73888">
        <ele>1617.6</ele>
        <time>2015-02-15T15:40:04Z</time>
      </trkpt>
      <trkpt lat="44.919" lon="5.73888">
        <ele>1616.2</ele>
        <time>2015-02-15T15:40:19Z</time>
      </trkpt>
      <trkpt lat="44.91927" lon="5.73885">
        <ele>1613.2</ele>
        <time>2015-02-15T15:41:01Z</time>
      </trkpt>
      <trkpt lat="44.91937" lon="5.73884">
        <ele>1612.4</ele>
        <time>2015-02-15T15:41:06Z</time>
      </trkpt>
      <trkpt lat="44.91958" lon="5.73881">
        <ele>1610.4</ele>
        <time>2015-02-15T15:41:15Z</time>
      </trkpt>
      <trkpt lat="44.91968" lon="5.73878">
        <ele>1609.5</ele>
        <time>2015-02-15T15:41:18Z</time>
      </trkpt>
      <trkpt lat="44.9198" lon="5.73876">
        <ele>1608.5</ele>
        <time>2015-02-15T15:41:21Z</time>
      </trkpt>
      <trkpt lat="44.91986" lon="5.73875">
        <ele>1608</ele>
        <time>2015-02-15T15:41:23Z</time>
      </trkpt>
      <trkpt lat="44.91994" lon="5.7387">
        <ele>1605</ele>
        <time>2015-02-15T15:41:36Z</time>
      </trkpt>
      <trkpt lat="44.92037" lon="5.73849">
        <ele>1597.6</ele>
        <time>2015-02-15T15:41:51Z</time>
      </trkpt>
      <trkpt lat="44.92039" lon="5.73847">
        <ele>1597.4</ele>
        <time>2015-02-15T15:41:52Z</time>
      </trkpt>
      <trkpt lat="44.92037" lon="5.73849">
        <ele>1597.6</ele>
        <time>2015-02-15T15:41:59Z</time>
      </trkpt>
      <trkpt lat="44.92042" lon="5.73824">
        <ele>1591.2</ele>
        <time>2015-02-15T15:42:53Z</time>
      </trkpt>
      <trkpt lat="44.92048" lon="5.73787">
        <ele>1588</ele>
        <time>2015-02-15T15:43:01Z</time>
      </trkpt>
      <trkpt lat="44.92044" lon="5.73745">
        <ele>1585.5</ele>
        <time>2015-02-15T15:43:07Z</time>
      </trkpt>
      <trkpt lat="44.92041" lon="5.73735">
        <ele>1585.3</ele>
        <time>2015-02-15T15:43:10Z</time>
      </trkpt>
      <trkpt lat="44.92038" lon="5.73727">
        <ele>1585.5</ele>
        <time>2015-02-15T15:43:13Z</time>
      </trkpt>
      <trkpt lat="44.92029" lon="5.73703">
        <ele>1585.4</ele>
        <time>2015-02-15T15:43:23Z</time>
      </trkpt>
      <trkpt lat="44.92031" lon="5.73678">
        <ele>1585</ele>
        <time>2015-02-15T15:43:32Z</time>
      </trkpt>
      <trkpt lat="44.92045" lon="5.73675">
        <ele>1583.8</ele>
        <time>2015-02-15T15:43:42Z</time>
      </trkpt>
      <trkpt lat="44.92057" lon="5.73683">
        <ele>1582.8</ele>
        <time>2015-02-15T15:43:50Z</time>
      </trkpt>
      <trkpt lat="44.9208" lon="5.73682">
        <ele>1581.1</ele>
        <time>2015-02-15T15:44:01Z</time>
      </trkpt>
      <trkpt lat="44.921" lon="5.73681">
        <ele>1579.9</ele>
        <time>2015-02-15T15:44:09Z</time>
      </trkpt>
      <trkpt lat="44.92119" lon="5.73682">
        <ele>1579.4</ele>
        <time>2015-02-15T15:44:17Z</time>
      </trkpt>
      <trkpt lat="44.92137" lon="5.73688">
        <ele>1578.8</ele>
        <time>2015-02-15T15:44:26Z</time>
      </trkpt>
      <trkpt lat="44.92156" lon="5.73696">
        <ele>1578.7</ele>
        <time>2015-02-15T15:44:36Z</time>
      </trkpt>
      <trkpt lat="44.92175" lon="5.73722">
        <ele>1575.7</ele>
        <time>2015-02-15T15:45:39Z</time>
      </trkpt>
      <trkpt lat="44.92181" lon="5.7375">
        <ele>1573.7</ele>
        <time>2015-02-15T15:45:53Z</time>
      </trkpt>
      <trkpt lat="44.92191" lon="5.73769">
        <ele>1574.2</ele>
        <time>2015-02-15T15:46:09Z</time>
      </trkpt>
      <trkpt lat="44.92204" lon="5.73782">
        <ele>1574.2</ele>
        <time>2015-02-15T15:46:18Z</time>
      </trkpt>
      <trkpt lat="44.92226" lon="5.73796">
        <ele>1574.3</ele>
        <time>2015-02-15T15:46:31Z</time>
      </trkpt>
      <trkpt lat="44.92235" lon="5.738">
        <ele>1574.6</ele>
        <time>2015-02-15T15:46:41Z</time>
      </trkpt>
      <trkpt lat="44.9224" lon="5.73802">
        <ele>1574.6</ele>
        <time>2015-02-15T15:46:47Z</time>
      </trkpt>
      <trkpt lat="44.92241" lon="5.73803">
        <ele>1574.5</ele>
        <time>2015-02-15T15:46:55Z</time>
      </trkpt>
      <trkpt lat="44.92253" lon="5.7381">
        <ele>1573.5</ele>
        <time>2015-02-15T15:49:24Z</time>
      </trkpt>
      <trkpt lat="44.9227" lon="5.73823">
        <ele>1573.2</ele>
        <time>2015-02-15T15:49:35Z</time>
      </trkpt>
      <trkpt lat="44.92287" lon="5.7384">
        <ele>1573.2</ele>
        <time>2015-02-15T15:49:52Z</time>
      </trkpt>
      <trkpt lat="44.92306" lon="5.73859">
        <ele>1572.7</ele>
        <time>2015-02-15T15:50:05Z</time>
      </trkpt>
      <trkpt lat="44.92317" lon="5.73871">
        <ele>1572.9</ele>
        <time>2015-02-15T15:50:13Z</time>
      </trkpt>
      <trkpt lat="44.92333" lon="5.73881">
        <ele>1573.4</ele>
        <time>2015-02-15T15:50:24Z</time>
      </trkpt>
      <trkpt lat="44.92355" lon="5.7388">
        <ele>1573.5</ele>
        <time>2015-02-15T15:50:38Z</time>
      </trkpt>
      <trkpt lat="44.92369" lon="5.73877">
        <ele>1574.7</ele>
        <time>2015-02-15T15:50:47Z</time>
      </trkpt>
      <trkpt lat="44.9239" lon="5.73876">
        <ele>1576.9</ele>
        <time>2015-02-15T15:51:00Z</time>
      </trkpt>
      <trkpt lat="44.92405" lon="5.73873">
        <ele>1577.6</ele>
        <time>2015-02-15T15:51:12Z</time>
      </trkpt>
      <trkpt lat="44.92418" lon="5.7387">
        <ele>1578.5</ele>
        <time>2015-02-15T15:51:21Z</time>
      </trkpt>
      <trkpt lat="44.92422" lon="5.7387">
        <ele>1579.5</ele>
        <time>2015-02-15T15:51:29Z</time>
      </trkpt>
      <trkpt lat="44.92436" lon="5.73868">
        <ele>1580.9</ele>
        <time>2015-02-15T15:53:50Z</time>
      </trkpt>
      <trkpt lat="44.92464" lon="5.73874">
        <ele>1580.4</ele>
        <time>2015-02-15T15:54:26Z</time>
      </trkpt>
      <trkpt lat="44.9248" lon="5.73885">
        <ele>1579.3</ele>
        <time>2015-02-15T15:54:37Z</time>
      </trkpt>
      <trkpt lat="44.92512" lon="5.73908">
        <ele>1576</ele>
        <time>2015-02-15T15:54:50Z</time>
      </trkpt>
      <trkpt lat="44.92533" lon="5.73927">
        <ele>1573.5</ele>
        <time>2015-02-15T15:54:56Z</time>
      </trkpt>
      <trkpt lat="44.92548" lon="5.73952">
        <ele>1572</ele>
        <time>2015-02-15T15:55:02Z</time>
      </trkpt>
      <trkpt lat="44.92555" lon="5.7397">
        <ele>1571.3</ele>
        <time>2015-02-15T15:55:08Z</time>
      </trkpt>
      <trkpt lat="44.92562" lon="5.74">
        <ele>1569.5</ele>
        <time>2015-02-15T15:55:17Z</time>
      </trkpt>
      <trkpt lat="44.92564" lon="5.74013">
        <ele>1568.6</ele>
        <time>2015-02-15T15:55:20Z</time>
      </trkpt>
      <trkpt lat="44.92571" lon="5.74035">
        <ele>1567.8</ele>
        <time>2015-02-15T15:55:26Z</time>
      </trkpt>
      <trkpt lat="44.92585" lon="5.74056">
        <ele>1566.5</ele>
        <time>2015-02-15T15:55:34Z</time>
      </trkpt>
      <trkpt lat="44.926" lon="5.7407">
        <ele>1566.2</ele>
        <time>2015-02-15T15:55:42Z</time>
      </trkpt>
      <trkpt lat="44.92621" lon="5.74082">
        <ele>1565.7</ele>
        <time>2015-02-15T15:55:53Z</time>
      </trkpt>
      <trkpt lat="44.92642" lon="5.74083">
        <ele>1565.6</ele>
        <time>2015-02-15T15:56:05Z</time>
      </trkpt>
      <trkpt lat="44.92665" lon="5.74077">
        <ele>1566</ele>
        <time>2015-02-15T15:56:18Z</time>
      </trkpt>
      <trkpt lat="44.9269" lon="5.74068">
        <ele>1566.2</ele>
        <time>2015-02-15T15:56:31Z</time>
      </trkpt>
      <trkpt lat="44.92711" lon="5.74078">
        <ele>1565.1</ele>
        <time>2015-02-15T15:56:44Z</time>
      </trkpt>
      <trkpt lat="44.92717" lon="5.74085">
        <ele>1565.1</ele>
        <time>2015-02-15T15:56:52Z</time>
      </trkpt>
      <trkpt lat="44.92724" lon="5.7409">
        <ele>1565.3</ele>
        <time>2015-02-15T15:57:09Z</time>
      </trkpt>
      <trkpt lat="44.92736" lon="5.74101">
        <ele>1565.1</ele>
        <time>2015-02-15T15:57:15Z</time>
      </trkpt>
      <trkpt lat="44.92742" lon="5.74106">
        <ele>1564.8</ele>
        <time>2015-02-15T15:57:18Z</time>
      </trkpt>
      <trkpt lat="44.92763" lon="5.74118">
        <ele>1563.9</ele>
        <time>2015-02-15T15:57:27Z</time>
      </trkpt>
      <trkpt lat="44.92784" lon="5.74127">
        <ele>1562.8</ele>
        <time>2015-02-15T15:57:35Z</time>
      </trkpt>
      <trkpt lat="44.92804" lon="5.74135">
        <ele>1562</ele>
        <time>2015-02-15T15:57:42Z</time>
      </trkpt>
      <trkpt lat="44.92824" lon="5.74143">
        <ele>1560.4</ele>
        <time>2015-02-15T15:57:49Z</time>
      </trkpt>
      <trkpt lat="44.92841" lon="5.74149">
        <ele>1558.8</ele>
        <time>2015-02-15T15:57:56Z</time>
      </trkpt>
      <trkpt lat="44.92871" lon="5.7415">
        <ele>1556.4</ele>
        <time>2015-02-15T15:58:04Z</time>
      </trkpt>
      <trkpt lat="44.92896" lon="5.74159">
        <ele>1553.5</ele>
        <time>2015-02-15T15:58:09Z</time>
      </trkpt>
      <trkpt lat="44.92914" lon="5.74164">
        <ele>1553.2</ele>
        <time>2015-02-15T15:58:19Z</time>
      </trkpt>
      <trkpt lat="44.92914" lon="5.74164">
        <ele>1553.2</ele>
        <time>2015-02-15T15:58:27Z</time>
      </trkpt>
      <trkpt lat="44.92914" lon="5.74164">
        <ele>1553.2</ele>
        <time>2015-02-15T15:58:28Z</time>
      </trkpt>
      <trkpt lat="44.9291" lon="5.74143">
        <ele>1551</ele>
        <time>2015-02-15T15:58:33Z</time>
      </trkpt>
      <trkpt lat="44.929" lon="5.74118">
        <ele>1549.6</ele>
        <time>2015-02-15T15:58:40Z</time>
      </trkpt>
      <trkpt lat="44.92889" lon="5.74081">
        <ele>1547.9</ele>
        <time>2015-02-15T15:58:48Z</time>
      </trkpt>
      <trkpt lat="44.92879" lon="5.74052">
        <ele>1546.1</ele>
        <time>2015-02-15T15:58:56Z</time>
      </trkpt>
      <trkpt lat="44.92879" lon="5.74052">
        <ele>1546.1</ele>
        <time>2015-02-15T15:59:04Z</time>
      </trkpt>
      <trkpt lat="44.92879" lon="5.74052">
        <ele>1546.1</ele>
        <time>2015-02-15T15:59:05Z</time>
      </trkpt>
      <trkpt lat="44.92876" lon="5.74036">
        <ele>1541.4</ele>
        <time>2015-02-15T16:01:22Z</time>
      </trkpt>
      <trkpt lat="44.92863" lon="5.73994">
        <ele>1539</ele>
        <time>2015-02-15T16:01:30Z</time>
      </trkpt>
      <trkpt lat="44.92853" lon="5.73966">
        <ele>1538</ele>
        <time>2015-02-15T16:01:36Z</time>
      </trkpt>
      <trkpt lat="44.9285" lon="5.73943">
        <ele>1536.9</ele>
        <time>2015-02-15T16:01:42Z</time>
      </trkpt>
      <trkpt lat="44.92847" lon="5.73926">
        <ele>1536.4</ele>
        <time>2015-02-15T16:01:47Z</time>
      </trkpt>
      <trkpt lat="44.92836" lon="5.73904">
        <ele>1535.9</ele>
        <time>2015-02-15T16:01:53Z</time>
      </trkpt>
      <trkpt lat="44.92827" lon="5.73894">
        <ele>1534.9</ele>
        <time>2015-02-15T16:01:57Z</time>
      </trkpt>
      <trkpt lat="44.92846" lon="5.73891">
        <ele>1529</ele>
        <time>2015-02-15T16:02:07Z</time>
      </trkpt>
      <trkpt lat="44.92871" lon="5.73901">
        <ele>1526.1</ele>
        <time>2015-02-15T16:02:13Z</time>
      </trkpt>
      <trkpt lat="44.92902" lon="5.73921">
        <ele>1523.1</ele>
        <time>2015-02-15T16:02:19Z</time>
      </trkpt>
      <trkpt lat="44.92931" lon="5.73947">
        <ele>1518.6</ele>
        <time>2015-02-15T16:02:25Z</time>
      </trkpt>
      <trkpt lat="44.92949" lon="5.73976">
        <ele>1516.2</ele>
        <time>2015-02-15T16:02:31Z</time>
      </trkpt>
      <trkpt lat="44.92964" lon="5.74">
        <ele>1515.4</ele>
        <time>2015-02-15T16:02:37Z</time>
      </trkpt>
      <trkpt lat="44.92971" lon="5.74011">
        <ele>1514.4</ele>
        <time>2015-02-15T16:02:40Z</time>
      </trkpt>
      <trkpt lat="44.92991" lon="5.74028">
        <ele>1512.9</ele>
        <time>2015-02-15T16:02:47Z</time>
      </trkpt>
      <trkpt lat="44.93021" lon="5.74039">
        <ele>1508</ele>
        <time>2015-02-15T16:02:54Z</time>
      </trkpt>
      <trkpt lat="44.93051" lon="5.74042">
        <ele>1504.8</ele>
        <time>2015-02-15T16:03:00Z</time>
      </trkpt>
      <trkpt lat="44.9308" lon="5.7405">
        <ele>1500.8</ele>
        <time>2015-02-15T16:03:06Z</time>
      </trkpt>
      <trkpt lat="44.93106" lon="5.74066">
        <ele>1496.6</ele>
        <time>2015-02-15T16:03:12Z</time>
      </trkpt>
      <trkpt lat="44.9312" lon="5.74087">
        <ele>1490.2</ele>
        <time>2015-02-15T16:03:18Z</time>
      </trkpt>
      <trkpt lat="44.93135" lon="5.74118">
        <ele>1485.4</ele>
        <time>2015-02-15T16:03:25Z</time>
      </trkpt>
      <trkpt lat="44.93146" lon="5.74148">
        <ele>1482</ele>
        <time>2015-02-15T16:03:31Z</time>
      </trkpt>
      <trkpt lat="44.93155" lon="5.74174">
        <ele>1481</ele>
        <time>2015-02-15T16:03:37Z</time>
      </trkpt>
      <trkpt lat="44.93164" lon="5.74201">
        <ele>1480.5</ele>
        <time>2015-02-15T16:03:44Z</time>
      </trkpt>
      <trkpt lat="44.93172" lon="5.74228">
        <ele>1479.7</ele>
        <time>2015-02-15T16:03:52Z</time>
      </trkpt>
      <trkpt lat="44.93178" lon="5.7425">
        <ele>1479.3</ele>
        <time>2015-02-15T16:04:00Z</time>
      </trkpt>
      <trkpt lat="44.93184" lon="5.74274">
        <ele>1478.7</ele>
        <time>2015-02-15T16:04:10Z</time>
      </trkpt>
      <trkpt lat="44.932" lon="5.74308">
        <ele>1479.8</ele>
        <time>2015-02-15T16:05:28Z</time>
      </trkpt>
      <trkpt lat="44.93221" lon="5.74338">
        <ele>1477.1</ele>
        <time>2015-02-15T16:05:35Z</time>
      </trkpt>
      <trkpt lat="44.93234" lon="5.74355">
        <ele>1476.7</ele>
        <time>2015-02-15T16:05:41Z</time>
      </trkpt>
      <trkpt lat="44.93247" lon="5.74368">
        <ele>1476.6</ele>
        <time>2015-02-15T16:05:50Z</time>
      </trkpt>
      <trkpt lat="44.93261" lon="5.74389">
        <ele>1476</ele>
        <time>2015-02-15T16:06:03Z</time>
      </trkpt>
      <trkpt lat="44.93273" lon="5.74408">
        <ele>1476.9</ele>
        <time>2015-02-15T16:06:14Z</time>
      </trkpt>
      <trkpt lat="44.93286" lon="5.74428">
        <ele>1476.5</ele>
        <time>2015-02-15T16:06:24Z</time>
      </trkpt>
      <trkpt lat="44.93304" lon="5.74452">
        <ele>1475.2</ele>
        <time>2015-02-15T16:06:34Z</time>
      </trkpt>
      <trkpt lat="44.93323" lon="5.74472">
        <ele>1473.3</ele>
        <time>2015-02-15T16:06:40Z</time>
      </trkpt>
      <trkpt lat="44.9334" lon="5.7449">
        <ele>1471.8</ele>
        <time>2015-02-15T16:06:45Z</time>
      </trkpt>
      <trkpt lat="44.93351" lon="5.74508">
        <ele>1470.9</ele>
        <time>2015-02-15T16:06:49Z</time>
      </trkpt>
      <trkpt lat="44.93357" lon="5.74531">
        <ele>1470.5</ele>
        <time>2015-02-15T16:06:56Z</time>
      </trkpt>
      <trkpt lat="44.93354" lon="5.74554">
        <ele>1470.4</ele>
        <time>2015-02-15T16:07:06Z</time>
      </trkpt>
      <trkpt lat="44.93369" lon="5.74585">
        <ele>1471.6</ele>
        <time>2015-02-15T16:07:19Z</time>
      </trkpt>
      <trkpt lat="44.93392" lon="5.7458">
        <ele>1471.6</ele>
        <time>2015-02-15T16:07:28Z</time>
      </trkpt>
      <trkpt lat="44.93414" lon="5.74565">
        <ele>1468.9</ele>
        <time>2015-02-15T16:07:35Z</time>
      </trkpt>
      <trkpt lat="44.93433" lon="5.74554">
        <ele>1468.2</ele>
        <time>2015-02-15T16:07:46Z</time>
      </trkpt>
      <trkpt lat="44.93433" lon="5.74554">
        <ele>1468.2</ele>
        <time>2015-02-15T16:07:53Z</time>
      </trkpt>
      <trkpt lat="44.93433" lon="5.74554">
        <ele>1468.2</ele>
        <time>2015-02-15T16:07:54Z</time>
      </trkpt>
      <trkpt lat="44.93454" lon="5.74546">
        <ele>1468</ele>
        <time>2015-02-15T16:08:19Z</time>
      </trkpt>
      <trkpt lat="44.93472" lon="5.74534">
        <ele>1468.8</ele>
        <time>2015-02-15T16:08:29Z</time>
      </trkpt>
      <trkpt lat="44.93488" lon="5.74523">
        <ele>1468.6</ele>
        <time>2015-02-15T16:08:38Z</time>
      </trkpt>
      <trkpt lat="44.93502" lon="5.74514">
        <ele>1467.7</ele>
        <time>2015-02-15T16:08:45Z</time>
      </trkpt>
      <trkpt lat="44.93518" lon="5.74508">
        <ele>1468.2</ele>
        <time>2015-02-15T16:08:53Z</time>
      </trkpt>
      <trkpt lat="44.93538" lon="5.74511">
        <ele>1468.1</ele>
        <time>2015-02-15T16:09:06Z</time>
      </trkpt>
      <trkpt lat="44.93546" lon="5.74524">
        <ele>1468.3</ele>
        <time>2015-02-15T16:09:16Z</time>
      </trkpt>
      <trkpt lat="44.93559" lon="5.74537">
        <ele>1468.9</ele>
        <time>2015-02-15T16:09:28Z</time>
      </trkpt>
      <trkpt lat="44.93567" lon="5.7455">
        <ele>1470.4</ele>
        <time>2015-02-15T16:09:38Z</time>
      </trkpt>
      <trkpt lat="44.93567" lon="5.7455">
        <ele>1470.4</ele>
        <time>2015-02-15T16:09:46Z</time>
      </trkpt>
      <trkpt lat="44.93567" lon="5.7455">
        <ele>1470.4</ele>
        <time>2015-02-15T16:09:47Z</time>
      </trkpt>
      <trkpt lat="44.93593" lon="5.74553">
        <ele>1469.5</ele>
        <time>2015-02-15T16:10:13Z</time>
      </trkpt>
      <trkpt lat="44.93614" lon="5.7454">
        <ele>1468.9</ele>
        <time>2015-02-15T16:10:22Z</time>
      </trkpt>
      <trkpt lat="44.93643" lon="5.74548">
        <ele>1465.6</ele>
        <time>2015-02-15T16:10:34Z</time>
      </trkpt>
      <trkpt lat="44.93652" lon="5.74567">
        <ele>1465.1</ele>
        <time>2015-02-15T16:10:39Z</time>
      </trkpt>
      <trkpt lat="44.93676" lon="5.74586">
        <ele>1464.3</ele>
        <time>2015-02-15T16:10:46Z</time>
      </trkpt>
      <trkpt lat="44.93708" lon="5.7459">
        <ele>1461.1</ele>
        <time>2015-02-15T16:10:52Z</time>
      </trkpt>
      <trkpt lat="44.93726" lon="5.74615">
        <ele>1460.5</ele>
        <time>2015-02-15T16:10:57Z</time>
      </trkpt>
      <trkpt lat="44.93745" lon="5.74637">
        <ele>1460.3</ele>
        <time>2015-02-15T16:11:03Z</time>
      </trkpt>
      <trkpt lat="44.93761" lon="5.74651">
        <ele>1459.7</ele>
        <time>2015-02-15T16:11:11Z</time>
      </trkpt>
      <trkpt lat="44.93761" lon="5.74651">
        <ele>1459.7</ele>
        <time>2015-02-15T16:11:19Z</time>
      </trkpt>
      <trkpt lat="44.93761" lon="5.74651">
        <ele>1459.7</ele>
        <time>2015-02-15T16:11:20Z</time>
      </trkpt>
      <trkpt lat="44.93768" lon="5.74692">
        <ele>1450.4</ele>
        <time>2015-02-15T16:12:22Z</time>
      </trkpt>
      <trkpt lat="44.93764" lon="5.74718">
        <ele>1451.1</ele>
        <time>2015-02-15T16:12:31Z</time>
      </trkpt>
      <trkpt lat="44.93764" lon="5.74765">
        <ele>1448</ele>
        <time>2015-02-15T16:12:42Z</time>
      </trkpt>
      <trkpt lat="44.93765" lon="5.74789">
        <ele>1446.7</ele>
        <time>2015-02-15T16:12:49Z</time>
      </trkpt>
      <trkpt lat="44.93766" lon="5.74806">
        <ele>1447.8</ele>
        <time>2015-02-15T16:12:57Z</time>
      </trkpt>
      <trkpt lat="44.93767" lon="5.74808">
        <ele>1448.8</ele>
        <time>2015-02-15T16:13:06Z</time>
      </trkpt>
      <trkpt lat="44.93756" lon="5.74807">
        <ele>1446.2</ele>
        <time>2015-02-15T16:13:26Z</time>
      </trkpt>
      <trkpt lat="44.9374" lon="5.74801">
        <ele>1445.3</ele>
        <time>2015-02-15T16:13:30Z</time>
      </trkpt>
      <trkpt lat="44.93711" lon="5.74791">
        <ele>1444.4</ele>
        <time>2015-02-15T16:13:35Z</time>
      </trkpt>
      <trkpt lat="44.93676" lon="5.74782">
        <ele>1444.1</ele>
        <time>2015-02-15T16:13:42Z</time>
      </trkpt>
      <trkpt lat="44.93663" lon="5.74776">
        <ele>1443.8</ele>
        <time>2015-02-15T16:13:47Z</time>
      </trkpt>
      <trkpt lat="44.93652" lon="5.74765">
        <ele>1444.8</ele>
        <time>2015-02-15T16:13:56Z</time>
      </trkpt>
      <trkpt lat="44.9364" lon="5.74754">
        <ele>1447.2</ele>
        <time>2015-02-15T16:14:07Z</time>
      </trkpt>
      <trkpt lat="44.93628" lon="5.7474">
        <ele>1449.6</ele>
        <time>2015-02-15T16:14:21Z</time>
      </trkpt>
      <trkpt lat="44.93603" lon="5.74726">
        <ele>1447.8</ele>
        <time>2015-02-15T16:14:32Z</time>
      </trkpt>
      <trkpt lat="44.93586" lon="5.74717">
        <ele>1449.1</ele>
        <time>2015-02-15T16:14:43Z</time>
      </trkpt>
      <trkpt lat="44.9356" lon="5.74712">
        <ele>1450.9</ele>
        <time>2015-02-15T16:15:01Z</time>
      </trkpt>
      <trkpt lat="44.93539" lon="5.74706">
        <ele>1455.2</ele>
        <time>2015-02-15T16:15:14Z</time>
      </trkpt>
      <trkpt lat="44.93527" lon="5.74702">
        <ele>1454.5</ele>
        <time>2015-02-15T16:15:21Z</time>
      </trkpt>
      <trkpt lat="44.9351" lon="5.747">
        <ele>1458.2</ele>
        <time>2015-02-15T16:15:34Z</time>
      </trkpt>
      <trkpt lat="44.93483" lon="5.74691">
        <ele>1456.4</ele>
        <time>2015-02-15T16:15:51Z</time>
      </trkpt>
      <trkpt lat="44.93463" lon="5.74681">
        <ele>1457.2</ele>
        <time>2015-02-15T16:16:06Z</time>
      </trkpt>
      <trkpt lat="44.93449" lon="5.74672">
        <ele>1458.2</ele>
        <time>2015-02-15T16:16:16Z</time>
      </trkpt>
      <trkpt lat="44.93449" lon="5.74672">
        <ele>1458.2</ele>
        <time>2015-02-15T16:16:23Z</time>
      </trkpt>
      <trkpt lat="44.93449" lon="5.74672">
        <ele>1458.2</ele>
        <time>2015-02-15T16:16:24Z</time>
      </trkpt>
      <trkpt lat="44.93428" lon="5.74669">
        <ele>1462.5</ele>
        <time>2015-02-15T16:16:47Z</time>
      </trkpt>
      <trkpt lat="44.93409" lon="5.74664">
        <ele>1464.3</ele>
        <time>2015-02-15T16:16:58Z</time>
      </trkpt>
      <trkpt lat="44.93398" lon="5.74663">
        <ele>1465.2</ele>
        <time>2015-02-15T16:17:03Z</time>
      </trkpt>
      <trkpt lat="44.93382" lon="5.74669">
        <ele>1466.8</ele>
        <time>2015-02-15T16:17:10Z</time>
      </trkpt>
      <trkpt lat="44.93371" lon="5.74672">
        <ele>1468.6</ele>
        <time>2015-02-15T16:17:17Z</time>
      </trkpt>
      <trkpt lat="44.93354" lon="5.74678">
        <ele>1470.1</ele>
        <time>2015-02-15T16:17:26Z</time>
      </trkpt>
      <trkpt lat="44.9334" lon="5.74686">
        <ele>1471.6</ele>
        <time>2015-02-15T16:17:36Z</time>
      </trkpt>
      <trkpt lat="44.93336" lon="5.74685">
        <ele>1472.5</ele>
        <time>2015-02-15T16:17:45Z</time>
      </trkpt>
      <trkpt lat="44.93351" lon="5.74653">
        <ele>1469.1</ele>
        <time>2015-02-15T16:18:16Z</time>
      </trkpt>
      <trkpt lat="44.93364" lon="5.74636">
        <ele>1466.6</ele>
        <time>2015-02-15T16:18:25Z</time>
      </trkpt>
      <trkpt lat="44.93376" lon="5.7462">
        <ele>1468.4</ele>
        <time>2015-02-15T16:18:34Z</time>
      </trkpt>
      <trkpt lat="44.93385" lon="5.74603">
        <ele>1469</ele>
        <time>2015-02-15T16:18:45Z</time>
      </trkpt>
      <trkpt lat="44.93411" lon="5.74569">
        <ele>1472.6</ele>
        <time>2015-02-15T16:19:03Z</time>
      </trkpt>
      <trkpt lat="44.93427" lon="5.7456">
        <ele>1472.8</ele>
        <time>2015-02-15T16:19:10Z</time>
      </trkpt>
      <trkpt lat="44.93446" lon="5.74552">
        <ele>1472.2</ele>
        <time>2015-02-15T16:19:17Z</time>
      </trkpt>
      <trkpt lat="44.93461" lon="5.74544">
        <ele>1472.2</ele>
        <time>2015-02-15T16:19:26Z</time>
      </trkpt>
      <trkpt lat="44.93476" lon="5.74538">
        <ele>1473.5</ele>
        <time>2015-02-15T16:19:35Z</time>
      </trkpt>
      <trkpt lat="44.93486" lon="5.74529">
        <ele>1473.7</ele>
        <time>2015-02-15T16:19:42Z</time>
      </trkpt>
      <trkpt lat="44.93503" lon="5.74517">
        <ele>1470.9</ele>
        <time>2015-02-15T16:19:51Z</time>
      </trkpt>
      <trkpt lat="44.93524" lon="5.74507">
        <ele>1470.8</ele>
        <time>2015-02-15T16:20:02Z</time>
      </trkpt>
      <trkpt lat="44.93539" lon="5.74513">
        <ele>1469.9</ele>
        <time>2015-02-15T16:20:12Z</time>
      </trkpt>
      <trkpt lat="44.93548" lon="5.7453">
        <ele>1469.1</ele>
        <time>2015-02-15T16:20:22Z</time>
      </trkpt>
      <trkpt lat="44.93561" lon="5.74548">
        <ele>1470</ele>
        <time>2015-02-15T16:20:35Z</time>
      </trkpt>
      <trkpt lat="44.93582" lon="5.74555">
        <ele>1469.8</ele>
        <time>2015-02-15T16:20:50Z</time>
      </trkpt>
      <trkpt lat="44.936" lon="5.74549">
        <ele>1467.9</ele>
        <time>2015-02-15T16:20:58Z</time>
      </trkpt>
      <trkpt lat="44.93618" lon="5.74533">
        <ele>1469.7</ele>
        <time>2015-02-15T16:21:07Z</time>
      </trkpt>
      <trkpt lat="44.93638" lon="5.74538">
        <ele>1469.4</ele>
        <time>2015-02-15T16:21:13Z</time>
      </trkpt>
      <trkpt lat="44.93646" lon="5.74558">
        <ele>1468.4</ele>
        <time>2015-02-15T16:21:18Z</time>
      </trkpt>
      <trkpt lat="44.93666" lon="5.74582">
        <ele>1467.7</ele>
        <time>2015-02-15T16:21:26Z</time>
      </trkpt>
      <trkpt lat="44.93675" lon="5.74587">
        <ele>1467.3</ele>
        <time>2015-02-15T16:21:29Z</time>
      </trkpt>
      <trkpt lat="44.93675" lon="5.74588">
        <ele>1466.7</ele>
        <time>2015-02-15T16:21:36Z</time>
      </trkpt>
      <trkpt lat="44.93694" lon="5.74584">
        <ele>1465.5</ele>
        <time>2015-02-15T16:21:53Z</time>
      </trkpt>
      <trkpt lat="44.93715" lon="5.74598">
        <ele>1464.7</ele>
        <time>2015-02-15T16:21:59Z</time>
      </trkpt>
      <trkpt lat="44.93732" lon="5.7462">
        <ele>1463.2</ele>
        <time>2015-02-15T16:22:04Z</time>
      </trkpt>
      <trkpt lat="44.93746" lon="5.74642">
        <ele>1462.1</ele>
        <time>2015-02-15T16:22:10Z</time>
      </trkpt>
      <trkpt lat="44.9376" lon="5.74654">
        <ele>1461.8</ele>
        <time>2015-02-15T16:22:16Z</time>
      </trkpt>
      <trkpt lat="44.93774" lon="5.74649">
        <ele>1459.9</ele>
        <time>2015-02-15T16:22:24Z</time>
      </trkpt>
      <trkpt lat="44.93797" lon="5.74634">
        <ele>1456.5</ele>
        <time>2015-02-15T16:22:34Z</time>
      </trkpt>
      <trkpt lat="44.93801" lon="5.74594">
        <ele>1453.7</ele>
        <time>2015-02-15T16:22:43Z</time>
      </trkpt>
      <trkpt lat="44.93793" lon="5.74562">
        <ele>1452.4</ele>
        <time>2015-02-15T16:22:51Z</time>
      </trkpt>
      <trkpt lat="44.93793" lon="5.74562">
        <ele>1452.4</ele>
        <time>2015-02-15T16:22:56Z</time>
      </trkpt>
      <trkpt lat="44.93793" lon="5.74562">
        <ele>1452.4</ele>
        <time>2015-02-15T16:22:57Z</time>
      </trkpt>
      <trkpt lat="44.9378" lon="5.74539">
        <ele>1449.4</ele>
        <time>2015-02-15T16:23:22Z</time>
      </trkpt>
      <trkpt lat="44.93772" lon="5.7452">
        <ele>1449</ele>
        <time>2015-02-15T16:23:32Z</time>
      </trkpt>
      <trkpt lat="44.93748" lon="5.74494">
        <ele>1446.7</ele>
        <time>2015-02-15T16:23:44Z</time>
      </trkpt>
      <trkpt lat="44.93722" lon="5.74474">
        <ele>1442.1</ele>
        <time>2015-02-15T16:23:55Z</time>
      </trkpt>
      <trkpt lat="44.93709" lon="5.74452">
        <ele>1441</ele>
        <time>2015-02-15T16:24:02Z</time>
      </trkpt>
      <trkpt lat="44.93698" lon="5.74421">
        <ele>1441.7</ele>
        <time>2015-02-15T16:24:11Z</time>
      </trkpt>
      <trkpt lat="44.93695" lon="5.74384">
        <ele>1440.8</ele>
        <time>2015-02-15T16:24:19Z</time>
      </trkpt>
      <trkpt lat="44.93678" lon="5.74357">
        <ele>1437.1</ele>
        <time>2015-02-15T16:24:27Z</time>
      </trkpt>
      <trkpt lat="44.93658" lon="5.74341">
        <ele>1434.2</ele>
        <time>2015-02-15T16:24:35Z</time>
      </trkpt>
      <trkpt lat="44.93637" lon="5.74332">
        <ele>1432.9</ele>
        <time>2015-02-15T16:24:43Z</time>
      </trkpt>
      <trkpt lat="44.93613" lon="5.74324">
        <ele>1432.2</ele>
        <time>2015-02-15T16:24:51Z</time>
      </trkpt>
      <trkpt lat="44.93592" lon="5.7432">
        <ele>1431</ele>
        <time>2015-02-15T16:24:58Z</time>
      </trkpt>
      <trkpt lat="44.93566" lon="5.74314">
        <ele>1430</ele>
        <time>2015-02-15T16:25:06Z</time>
      </trkpt>
      <trkpt lat="44.93544" lon="5.74309">
        <ele>1429.3</ele>
        <time>2015-02-15T16:25:13Z</time>
      </trkpt>
      <trkpt lat="44.93526" lon="5.74301">
        <ele>1429.3</ele>
        <time>2015-02-15T16:25:20Z</time>
      </trkpt>
      <trkpt lat="44.93513" lon="5.74282">
        <ele>1427.4</ele>
        <time>2015-02-15T16:25:26Z</time>
      </trkpt>
      <trkpt lat="44.9352" lon="5.74251">
        <ele>1425.7</ele>
        <time>2015-02-15T16:25:32Z</time>
      </trkpt>
      <trkpt lat="44.93535" lon="5.74209">
        <ele>1424.9</ele>
        <time>2015-02-15T16:25:38Z</time>
      </trkpt>
      <trkpt lat="44.9355" lon="5.7416">
        <ele>1423.8</ele>
        <time>2015-02-15T16:25:44Z</time>
      </trkpt>
      <trkpt lat="44.93565" lon="5.74112">
        <ele>1422.6</ele>
        <time>2015-02-15T16:25:50Z</time>
      </trkpt>
      <trkpt lat="44.93579" lon="5.74067">
        <ele>1421.3</ele>
        <time>2015-02-15T16:25:56Z</time>
      </trkpt>
      <trkpt lat="44.93591" lon="5.7403">
        <ele>1417.3</ele>
        <time>2015-02-15T16:26:02Z</time>
      </trkpt>
      <trkpt lat="44.9358" lon="5.73994">
        <ele>1413</ele>
        <time>2015-02-15T16:26:09Z</time>
      </trkpt>
      <trkpt lat="44.93577" lon="5.73975">
        <ele>1410</ele>
        <time>2015-02-15T16:26:15Z</time>
      </trkpt>
      <trkpt lat="44.93593" lon="5.73992">
        <ele>1406</ele>
        <time>2015-02-15T16:26:22Z</time>
      </trkpt>
      <trkpt lat="44.93612" lon="5.74026">
        <ele>1403</ele>
        <time>2015-02-15T16:26:30Z</time>
      </trkpt>
      <trkpt lat="44.93617" lon="5.7406">
        <ele>1401.8</ele>
        <time>2015-02-15T16:26:36Z</time>
      </trkpt>
      <trkpt lat="44.93616" lon="5.74086">
        <ele>1399.7</ele>
        <time>2015-02-15T16:26:42Z</time>
      </trkpt>
      <trkpt lat="44.93614" lon="5.74112">
        <ele>1395.5</ele>
        <time>2015-02-15T16:26:49Z</time>
      </trkpt>
      <trkpt lat="44.93615" lon="5.74128">
        <ele>1394.2</ele>
        <time>2015-02-15T16:26:54Z</time>
      </trkpt>
      <trkpt lat="44.93627" lon="5.74104">
        <ele>1387</ele>
        <time>2015-02-15T16:27:04Z</time>
      </trkpt>
      <trkpt lat="44.93636" lon="5.74077">
        <ele>1384.5</ele>
        <time>2015-02-15T16:27:11Z</time>
      </trkpt>
      <trkpt lat="44.93636" lon="5.74077">
        <ele>1384.5</ele>
        <time>2015-02-15T16:27:16Z</time>
      </trkpt>
      <trkpt lat="44.93636" lon="5.74077">
        <ele>1384.5</ele>
        <time>2015-02-15T16:27:17Z</time>
      </trkpt>
      <trkpt lat="44.93651" lon="5.74049">
        <ele>1377.6</ele>
        <time>2015-02-15T16:29:25Z</time>
      </trkpt>
      <trkpt lat="44.93665" lon="5.74022">
        <ele>1375.9</ele>
        <time>2015-02-15T16:29:32Z</time>
      </trkpt>
      <trkpt lat="44.93672" lon="5.73986">
        <ele>1369.6</ele>
        <time>2015-02-15T16:29:39Z</time>
      </trkpt>
      <trkpt lat="44.93672" lon="5.73954">
        <ele>1366.7</ele>
        <time>2015-02-15T16:29:44Z</time>
      </trkpt>
      <trkpt lat="44.93668" lon="5.73916">
        <ele>1364.1</ele>
        <time>2015-02-15T16:29:50Z</time>
      </trkpt>
      <trkpt lat="44.93664" lon="5.73885">
        <ele>1363.1</ele>
        <time>2015-02-15T16:29:55Z</time>
      </trkpt>
      <trkpt lat="44.93654" lon="5.73847">
        <ele>1361.3</ele>
        <time>2015-02-15T16:30:01Z</time>
      </trkpt>
      <trkpt lat="44.93634" lon="5.73798">
        <ele>1360.4</ele>
        <time>2015-02-15T16:30:08Z</time>
      </trkpt>
      <trkpt lat="44.93617" lon="5.73763">
        <ele>1359.5</ele>
        <time>2015-02-15T16:30:13Z</time>
      </trkpt>
      <trkpt lat="44.9359" lon="5.73744">
        <ele>1357.8</ele>
        <time>2015-02-15T16:30:19Z</time>
      </trkpt>
      <trkpt lat="44.93577" lon="5.7375">
        <ele>1357.3</ele>
        <time>2015-02-15T16:30:24Z</time>
      </trkpt>
      <trkpt lat="44.93543" lon="5.73763">
        <ele>1355.1</ele>
        <time>2015-02-15T16:30:33Z</time>
      </trkpt>
      <trkpt lat="44.93519" lon="5.73763">
        <ele>1354.5</ele>
        <time>2015-02-15T16:30:37Z</time>
      </trkpt>
      <trkpt lat="44.93519" lon="5.73763">
        <ele>1354.5</ele>
        <time>2015-02-15T16:30:43Z</time>
      </trkpt>
      <trkpt lat="44.93535" lon="5.73748">
        <ele>1351.3</ele>
        <time>2015-02-15T16:30:45Z</time>
      </trkpt>
      <trkpt lat="44.93543" lon="5.73732">
        <ele>1347.6</ele>
        <time>2015-02-15T16:30:53Z</time>
      </trkpt>
      <trkpt lat="44.93543" lon="5.73732">
        <ele>1347.6</ele>
        <time>2015-02-15T16:31:00Z</time>
      </trkpt>
      <trkpt lat="44.93543" lon="5.73732">
        <ele>1347.6</ele>
        <time>2015-02-15T16:31:01Z</time>
      </trkpt>
      <trkpt lat="44.93521" lon="5.73752">
        <ele>1339.2</ele>
        <time>2015-02-15T16:31:07Z</time>
      </trkpt>
      <trkpt lat="44.93502" lon="5.73769">
        <ele>1338.2</ele>
        <time>2015-02-15T16:31:16Z</time>
      </trkpt>
      <trkpt lat="44.9349" lon="5.73778">
        <ele>1338.4</ele>
        <time>2015-02-15T16:31:22Z</time>
      </trkpt>
      <trkpt lat="44.93474" lon="5.73791">
        <ele>1339.6</ele>
        <time>2015-02-15T16:31:32Z</time>
      </trkpt>
      <trkpt lat="44.93467" lon="5.73797">
        <ele>1338.9</ele>
        <time>2015-02-15T16:31:37Z</time>
      </trkpt>
      <trkpt lat="44.93465" lon="5.73799">
        <ele>1337.9</ele>
        <time>2015-02-15T16:31:51Z</time>
      </trkpt>
      <trkpt lat="44.93449" lon="5.73827">
        <ele>1338</ele>
        <time>2015-02-15T16:32:21Z</time>
      </trkpt>
      <trkpt lat="44.93442" lon="5.73842">
        <ele>1338.7</ele>
        <time>2015-02-15T16:32:32Z</time>
      </trkpt>
      <trkpt lat="44.93436" lon="5.73855">
        <ele>1339.3</ele>
        <time>2015-02-15T16:32:45Z</time>
      </trkpt>
      <trkpt lat="44.93436" lon="5.73855">
        <ele>1339.3</ele>
        <time>2015-02-15T16:35:40Z</time>
      </trkpt>
      <trkpt lat="44.93436" lon="5.73855">
        <ele>1298</ele>
        <time>2015-02-15T16:41:52Z</time>
      </trkpt>
      <trkpt lat="44.93436" lon="5.73855">
        <ele>1298</ele>
        <time>2015-02-15T16:41:53Z</time>
      </trkpt>
    </trkseg>
  </trk>
</gpx>